Time;durP1;ratioP1;P1;durP2;ratioP2;P2;SDS_P1;SDS_P2;PMS_P1;PMS_P2;Temp;Humidity;BMP_temperature;BMP_pressure;BME280_temperature;BME280_humidity;BME280_pressure;Samples;Min_cycle;Max_cycle;Signal;HPM_P1;HPM_P2
2022/06/26 00:01:59;;;;;;;7.60;6.40;;;21.70;95.10;;;;;;5076014;28;20455;-70
2022/06/26 00:04:27;;;;;;;8.27;7.50;;;21.70;94.90;;;;;;5075407;28;20472;-71
2022/06/26 00:06:55;;;;;;;7.87;6.70;;;21.80;94.90;;;;;;5074959;28;20465;-71
2022/06/26 00:09:22;;;;;;;7.23;6.63;;;21.90;95.10;;;;;;5074821;28;20535;-70
2022/06/26 00:11:49;;;;;;;6.50;6.10;;;21.90;94.80;;;;;;5075054;28;20446;-70
2022/06/26 00:14:16;;;;;;;7.23;6.63;;;22.00;94.70;;;;;;5074241;28;20547;-70
2022/06/26 00:16:42;;;;;;;7.30;6.70;;;22.00;94.60;;;;;;5074279;28;20477;-71
2022/06/26 00:19:09;;;;;;;7.57;7.03;;;22.10;94.40;;;;;;5074237;28;20448;-71
2022/06/26 00:21:37;;;;;;;8.13;6.87;;;22.00;94.20;;;;;;5073895;28;20817;-71
2022/06/26 00:24:05;;;;;;;11.13;7.40;;;22.00;94.00;;;;;;5074310;28;20470;-70
2022/06/26 00:26:32;;;;;;;7.13;6.60;;;22.10;93.80;;;;;;5073491;28;20946;-71
2022/06/26 00:28:58;;;;;;;8.10;7.40;;;22.10;93.80;;;;;;5074084;28;20817;-71
2022/06/26 00:31:25;;;;;;;7.40;6.80;;;22.10;93.70;;;;;;5073965;28;20452;-69
2022/06/26 00:33:52;;;;;;;7.53;6.83;;;22.10;93.70;;;;;;5073942;28;20469;-70
2022/06/26 00:36:19;;;;;;;7.23;6.53;;;22.00;93.70;;;;;;5073947;28;20480;-71
2022/06/26 00:38:47;;;;;;;7.20;6.57;;;22.10;93.70;;;;;;5073585;28;20445;-71
2022/06/26 00:41:14;;;;;;;8.67;6.00;;;22.10;93.70;;;;;;5074118;28;20445;-70
2022/06/26 00:43:40;;;;;;;6.90;6.40;;;22.10;93.60;;;;;;5073806;28;20475;-70
2022/06/26 00:46:07;;;;;;;6.97;6.37;;;22.10;93.80;;;;;;5073893;28;20813;-71
2022/06/26 00:48:34;;;;;;;6.60;6.00;;;22.10;93.70;;;;;;5073927;28;20441;-71
2022/06/26 00:51:01;;;;;;;6.13;5.60;;;22.20;93.70;;;;;;5073993;28;20447;-71
2022/06/26 00:53:28;;;;;;;7.53;6.83;;;22.10;93.30;;;;;;5073238;28;20469;-70
2022/06/26 00:55:56;;;;;;;8.83;7.37;;;22.10;93.30;;;;;;5073738;28;20469;-71
2022/06/26 00:58:23;;;;;;;10.07;6.83;;;22.10;93.40;;;;;;5073711;28;20467;-71
2022/06/26 01:00:50;;;;;;;6.00;5.50;;;22.10;93.30;;;;;;5074081;28;20451;-70
2022/06/26 01:03:17;;;;;;;9.20;8.20;;;22.00;93.40;;;;;;5073219;28;21004;-70
2022/06/26 01:05:43;;;;;;;7.70;7.10;;;22.00;93.50;;;;;;5073459;28;20440;-70
2022/06/26 01:08:10;;;;;;;10.20;7.27;;;21.90;93.70;;;;;;5073641;28;20441;-70
2022/06/26 01:10:38;;;;;;;8.20;7.47;;;21.80;93.70;;;;;;5073356;28;20452;-70
2022/06/26 01:13:07;;;;;;;7.23;6.50;;;21.70;93.80;;;;;;5073480;28;20483;-70
2022/06/26 01:15:34;;;;;;;7.40;6.90;;;21.70;93.80;;;;;;5072538;28;20434;-70
2022/06/26 01:18:01;;;;;;;6.13;5.60;;;21.70;93.70;;;;;;5073556;28;20217;-70
2022/06/26 01:20:28;;;;;;;6.27;5.87;;;21.60;93.50;;;;;;5073478;28;20449;-70
2022/06/26 01:23:01;;;;;;;6.53;6.03;;;21.60;93.60;;;;;;5073396;28;20449;-70
2022/06/26 01:25:39;;;;;;;6.83;6.23;;;21.60;93.40;;;;;;5073715;28;20474;-71
2022/06/26 01:28:06;;;;;;;7.17;6.30;;;21.50;93.40;;;;;;5073666;28;20436;-71
2022/06/26 01:30:32;;;;;;;6.50;5.40;;;21.50;93.50;;;;;;5073379;28;20440;-71
2022/06/26 01:32:59;;;;;;;8.40;6.50;;;21.50;93.70;;;;;;5072934;28;20449;-70
2022/06/26 01:35:26;;;;;;;6.63;6.03;;;21.50;93.80;;;;;;5073336;28;20448;-71
2022/06/26 01:37:53;;;;;;;7.10;5.47;;;21.50;94.00;;;;;;5073250;28;20480;-71
2022/06/26 01:40:21;;;;;;;10.57;6.23;;;21.40;93.90;;;;;;5076703;28;20844;-70
2022/06/26 01:42:48;;;;;;;6.00;5.07;;;21.40;94.20;;;;;;5076970;28;20828;-71
2022/06/26 01:45:15;;;;;;;8.37;6.53;;;21.40;94.20;;;;;;5077133;28;20556;-70
2022/06/26 01:47:41;;;;;;;14.57;7.00;;;21.30;94.30;;;;;;5077197;28;20455;-71
2022/06/26 01:50:08;;;;;;;11.67;6.20;;;21.30;94.10;;;;;;5077261;28;20445;-71
2022/06/26 01:52:35;;;;;;;16.23;7.27;;;21.30;94.20;;;;;;5077124;28;20440;-71
2022/06/26 01:55:02;;;;;;;8.00;6.07;;;21.30;94.40;;;;;;5076431;28;20496;-72
2022/06/26 01:57:30;;;;;;;7.53;6.80;;;21.30;94.30;;;;;;5076646;28;20484;-71
2022/06/26 01:59:57;;;;;;;7.53;6.77;;;21.20;94.20;;;;;;5077863;28;20786;-71
2022/06/26 02:02:24;;;;;;;7.90;7.10;;;21.20;94.10;;;;;;5076646;28;20811;-71
2022/06/26 02:04:50;;;;;;;7.40;6.07;;;21.20;94.40;;;;;;5076617;28;20977;-70
2022/06/26 02:07:17;;;;;;;12.60;7.30;;;21.20;94.40;;;;;;5076532;28;20933;-71
2022/06/26 02:15:14;;;;;;;8.17;7.33;;;21.20;94.50;;;;;;5076421;28;20439;-70
2022/06/26 02:17:40;;;;;;;14.27;8.60;;;21.30;94.30;;;;;;5076639;28;20819;-70
2022/06/26 02:20:08;;;;;;;11.50;9.23;;;21.30;94.30;;;;;;5076650;28;20455;-70
2022/06/26 02:22:35;;;;;;;8.00;6.83;;;21.30;94.30;;;;;;5076366;28;20888;-70
2022/06/26 02:25:03;;;;;;;9.03;7.30;;;21.30;94.40;;;;;;5076458;28;20833;-71
2022/06/26 02:27:31;;;;;;;9.57;8.83;;;21.20;94.30;;;;;;5076352;28;20451;-71
2022/06/26 02:29:58;;;;;;;8.20;7.00;;;21.30;94.30;;;;;;5076350;28;20498;-70
2022/06/26 02:32:25;;;;;;;9.30;8.50;;;21.30;94.30;;;;;;5076570;28;20448;-70
2022/06/26 02:34:52;;;;;;;9.03;8.13;;;21.30;94.30;;;;;;5076447;28;20464;-70
2022/06/26 02:37:18;;;;;;;9.90;8.50;;;21.30;94.20;;;;;;5076576;28;20476;-70
2022/06/26 02:39:46;;;;;;;10.67;9.70;;;21.30;94.10;;;;;;5076929;28;20455;-71
2022/06/26 02:42:13;;;;;;;14.10;9.83;;;21.30;94.00;;;;;;5077176;28;20440;-71
2022/06/26 02:44:41;;;;;;;11.70;9.77;;;21.30;93.90;;;;;;5077765;28;20981;-70
2022/06/26 02:47:07;;;;;;;8.70;7.80;;;21.30;93.90;;;;;;5076313;28;20452;-70
2022/06/26 02:49:34;;;;;;;11.40;9.23;;;21.30;94.10;;;;;;5075745;28;20457;-71
2022/06/26 02:52:01;;;;;;;12.23;9.63;;;21.30;94.20;;;;;;5076056;28;20445;-70
2022/06/26 02:54:28;;;;;;;10.27;9.27;;;21.30;94.50;;;;;;5075737;28;20488;-70
2022/06/26 02:56:54;;;;;;;9.47;8.70;;;21.30;94.10;;;;;;5075834;28;20484;-71
2022/06/26 02:59:21;;;;;;;13.80;8.90;;;21.20;94.10;;;;;;5075882;28;20451;-71
2022/06/26 03:01:49;;;;;;;8.73;8.03;;;21.20;94.10;;;;;;5075805;28;20445;-70
2022/06/26 03:04:16;;;;;;;9.97;8.97;;;21.20;94.20;;;;;;5075784;28;20471;-71
2022/06/26 03:06:43;;;;;;;14.90;10.00;;;21.20;94.30;;;;;;5075695;28;20942;-71
2022/06/26 03:09:10;;;;;;;12.00;10.00;;;21.20;94.50;;;;;;5075413;28;20444;-71
2022/06/26 03:11:37;;;;;;;11.57;9.63;;;21.30;94.60;;;;;;5075697;28;20456;-70
2022/06/26 03:14:03;;;;;;;10.70;9.70;;;21.30;94.60;;;;;;5075579;28;20957;-70
2022/06/26 03:16:30;;;;;;;10.50;8.97;;;21.30;94.90;;;;;;5075582;28;20465;-71
2022/06/26 03:18:58;;;;;;;10.10;9.10;;;21.30;95.10;;;;;;5075628;28;20437;-71
2022/06/26 03:21:25;;;;;;;11.40;10.13;;;21.30;95.00;;;;;;5075186;28;20460;-71
2022/06/26 03:24:04;;;;;;;12.30;9.80;;;21.30;95.10;;;;;;5075033;28;20479;-70
2022/06/26 03:26:32;;;;;;;11.97;10.80;;;21.30;95.30;;;;;;5075502;28;20429;-71
2022/06/26 03:28:59;;;;;;;10.63;9.50;;;21.30;95.50;;;;;;5075316;28;20453;-71
2022/06/26 03:31:26;;;;;;;11.57;10.47;;;21.30;95.50;;;;;;5075363;28;20445;-70
2022/06/26 03:33:53;;;;;;;10.40;9.23;;;21.30;95.30;;;;;;5075321;28;20468;-71
2022/06/26 03:36:22;;;;;;;13.90;11.70;;;21.30;95.40;;;;;;5075102;28;20450;-71
2022/06/26 03:38:49;;;;;;;10.90;9.57;;;21.30;95.40;;;;;;5074888;28;20425;-70
2022/06/26 03:41:16;;;;;;;12.77;11.27;;;21.30;95.80;;;;;;5075092;28;20443;-71
2022/06/26 03:43:43;;;;;;;13.20;10.73;;;21.20;96.10;;;;;;5075042;28;20834;-70
2022/06/26 03:46:10;;;;;;;16.60;10.47;;;21.20;96.20;;;;;;5075174;28;20449;-70
2022/06/26 03:48:37;;;;;;;9.07;6.80;;;21.20;96.70;;;;;;5075273;28;20451;-70
2022/06/26 03:51:04;;;;;;;7.03;5.70;;;21.10;95.80;;;;;;5075090;28;20441;-71
2022/06/26 03:53:33;;;;;;;4.97;4.57;;;20.90;95.80;;;;;;5074980;28;20465;-70
2022/06/26 03:56:00;;;;;;;7.20;4.47;;;20.70;95.40;;;;;;5074924;28;20431;-70
2022/06/26 03:58:27;;;;;;;5.70;3.87;;;20.60;95.50;;;;;;5074667;28;20484;-71
2022/06/26 04:00:54;;;;;;;5.73;4.43;;;20.40;96.30;;;;;;5074250;28;20448;-70
2022/06/26 04:03:21;;;;;;;3.50;3.20;;;20.30;96.40;;;;;;5074383;28;20476;-70
2022/06/26 04:05:48;;;;;;;4.33;3.10;;;20.20;96.50;;;;;;5074738;28;20444;-70
2022/06/26 04:08:15;;;;;;;3.67;3.33;;;20.10;96.30;;;;;;5075403;28;20463;-71
2022/06/26 04:10:44;;;;;;;3.60;3.30;;;20.10;96.20;;;;;;5074820;28;20501;-71
2022/06/26 04:13:13;;;;;;;6.47;4.27;;;19.90;96.30;;;;;;5074026;28;20946;-70
2022/06/26 04:15:41;;;;;;;4.70;4.07;;;19.90;96.70;;;;;;5074353;28;20448;-70
2022/06/26 04:18:09;;;;;;;5.27;4.07;;;19.80;96.50;;;;;;5074464;28;20487;-70
2022/06/26 04:20:36;;;;;;;8.53;3.57;;;19.70;96.80;;;;;;5074244;28;20813;-71
2022/06/26 04:23:06;;;;;;;4.93;3.70;;;19.70;97.20;;;;;;5074258;28;20452;-70
2022/06/26 04:25:34;;;;;;;10.30;3.30;;;19.70;97.00;;;;;;5074285;28;20449;-71
2022/06/26 04:28:04;;;;;;;5.63;3.27;;;19.70;96.90;;;;;;5074123;28;20445;-70
2022/06/26 04:30:31;;;;;;;7.53;3.53;;;19.60;97.20;;;;;;5074157;28;20448;-70
2022/06/26 04:32:58;;;;;;;5.30;4.37;;;19.60;97.10;;;;;;5073681;28;20794;-70
2022/06/26 04:35:25;;;;;;;4.70;3.87;;;19.50;97.30;;;;;;5073962;28;20448;-70
2022/06/26 04:37:51;;;;;;;7.53;3.60;;;19.50;97.50;;;;;;5073887;28;20481;-70
2022/06/26 04:40:18;;;;;;;5.23;3.87;;;19.40;97.70;;;;;;5073593;28;20794;-70
2022/06/26 04:42:45;;;;;;;5.20;3.90;;;19.40;97.80;;;;;;5073990;28;20440;-71
2022/06/26 04:45:13;;;;;;;6.47;4.87;;;19.30;97.90;;;;;;5073753;28;20464;-71
2022/06/26 04:47:40;;;;;;;7.70;3.80;;;19.30;98.10;;;;;;5073839;28;20447;-71
2022/06/26 04:50:09;;;;;;;6.90;3.90;;;19.30;98.10;;;;;;5073752;28;20442;-71
2022/06/26 04:52:35;;;;;;;5.53;4.43;;;19.30;98.20;;;;;;5073607;28;20457;-70
2022/06/26 04:55:02;;;;;;;6.97;4.23;;;19.40;98.30;;;;;;5073198;28;20841;-70
2022/06/26 04:57:29;;;;;;;5.40;3.83;;;19.40;98.30;;;;;;5073658;28;20480;-70
2022/06/26 04:59:56;;;;;;;6.40;4.90;;;19.40;98.30;;;;;;5073436;28;20820;-67
2022/06/26 05:02:24;;;;;;;5.63;4.40;;;19.40;98.60;;;;;;5073706;28;20475;-67
2022/06/26 05:04:51;;;;;;;4.47;4.07;;;19.40;98.50;;;;;;5073536;28;20460;-66
2022/06/26 05:07:17;;;;;;;9.37;4.80;;;19.40;98.50;;;;;;5073332;28;20459;-67
2022/06/26 05:09:44;;;;;;;6.67;4.77;;;19.50;98.70;;;;;;5073206;28;20936;-66
2022/06/26 05:12:11;;;;;;;4.63;4.33;;;19.50;98.10;;;;;;5073464;28;20456;-67
2022/06/26 05:14:38;;;;;;;7.60;4.43;;;19.60;98.10;;;;;;5073573;28;20525;-67
2022/06/26 05:17:05;;;;;;;4.73;3.63;;;19.70;97.80;;;;;;5073579;28;20480;-68
2022/06/26 05:19:33;;;;;;;4.17;3.83;;;19.70;97.20;;;;;;5073719;28;20455;-68
2022/06/26 05:22:02;;;;;;;4.07;3.70;;;19.80;97.10;;;;;;5073327;28;20440;-68
2022/06/26 05:24:29;;;;;;;5.97;3.43;;;19.80;96.40;;;;;;5074013;28;20511;-68
2022/06/26 05:26:57;;;;;;;7.47;4.23;;;19.90;96.80;;;;;;5074712;28;20514;-68
2022/06/26 05:29:23;;;;;;;5.60;3.10;;;20.00;96.80;;;;;;5074640;28;20770;-68
2022/06/26 05:31:50;;;;;;;8.17;3.93;;;20.00;96.20;;;;;;5073354;28;20444;-69
2022/06/26 05:34:17;;;;;;;3.93;3.37;;;20.10;96.10;;;;;;5073392;28;20495;-69
2022/06/26 05:36:45;;;;;;;6.90;3.30;;;20.20;96.10;;;;;;5073210;28;20455;-69
2022/06/26 05:39:12;;;;;;;6.70;4.20;;;20.40;96.20;;;;;;5073339;28;20445;-69
2022/06/26 05:41:39;;;;;;;5.50;4.10;;;20.50;95.80;;;;;;5073207;28;20433;-69
2022/06/26 05:44:06;;;;;;;6.33;4.30;;;20.50;95.10;;;;;;5073159;28;20473;-69
2022/06/26 05:46:32;;;;;;;5.73;4.40;;;20.40;95.10;;;;;;5073282;28;20449;-67
2022/06/26 05:48:59;;;;;;;8.03;5.07;;;20.40;94.80;;;;;;5072893;28;20942;-67
2022/06/26 05:51:26;;;;;;;5.50;4.17;;;20.40;94.70;;;;;;5072980;28;20839;-67
2022/06/26 05:53:54;;;;;;;6.83;4.67;;;20.40;94.70;;;;;;5072881;28;20503;-67
2022/06/26 05:56:21;;;;;;;8.07;4.17;;;20.40;94.20;;;;;;5073221;28;20436;-67
2022/06/26 05:58:48;;;;;;;4.17;3.77;;;20.40;94.70;;;;;;5073515;28;20465;-68
2022/06/26 06:01:14;;;;;;;6.23;3.50;;;20.40;94.10;;;;;;5073430;28;20498;-68
2022/06/26 06:03:41;;;;;;;5.23;4.40;;;20.30;94.20;;;;;;5072935;28;20460;-68
2022/06/26 06:06:08;;;;;;;9.57;4.37;;;20.20;94.10;;;;;;5073129;28;20515;-69
2022/06/26 06:08:35;;;;;;;7.20;4.00;;;20.20;94.10;;;;;;5073134;28;20447;-69
2022/06/26 06:11:03;;;;;;;5.90;4.80;;;20.20;94.40;;;;;;5072718;28;20794;-69
2022/06/26 06:13:29;;;;;;;4.73;3.80;;;20.20;94.40;;;;;;5073021;28;20475;-69
2022/06/26 06:15:56;;;;;;;7.83;4.20;;;20.30;94.50;;;;;;5073021;28;20433;-68
2022/06/26 06:18:23;;;;;;;6.63;3.90;;;20.30;93.80;;;;;;5072853;28;20476;-68
2022/06/26 06:20:50;;;;;;;4.97;3.60;;;20.30;93.90;;;;;;5073081;28;20436;-68
2022/06/26 06:23:17;;;;;;;4.87;3.50;;;20.40;94.40;;;;;;5072805;28;20500;-68
2022/06/26 06:25:43;;;;;;;5.80;4.57;;;20.50;93.90;;;;;;5075290;28;20448;-68
2022/06/26 06:28:11;;;;;;;3.57;3.07;;;20.50;93.50;;;;;;5076199;28;20807;-69
2022/06/26 06:30:38;;;;;;;3.07;2.73;;;20.60;93.20;;;;;;5076390;28;20449;-69
2022/06/26 06:33:05;;;;;;;4.37;2.80;;;20.60;93.50;;;;;;5076487;28;20440;-69
2022/06/26 06:35:33;;;;;;;3.60;2.90;;;20.70;91.70;;;;;;5076417;28;20826;-69
2022/06/26 06:37:59;;;;;;;3.97;2.60;;;20.70;91.40;;;;;;5076472;28;20571;-68
2022/06/26 06:40:26;;;;;;;3.43;3.13;;;20.60;91.20;;;;;;5076305;28;20452;-69
2022/06/26 06:42:53;;;;;;;3.57;3.27;;;20.60;90.80;;;;;;5076240;28;20539;-69
2022/06/26 06:45:21;;;;;;;4.20;2.80;;;20.70;91.30;;;;;;5076187;28;20445;-69
2022/06/26 06:47:48;;;;;;;4.10;2.13;;;20.80;91.60;;;;;;5076247;28;20436;-70
2022/06/26 06:50:15;;;;;;;4.93;2.70;;;20.80;90.30;;;;;;5076164;28;20498;-70
2022/06/26 06:52:41;;;;;;;4.90;3.03;;;20.80;89.60;;;;;;5076395;28;20433;-70
2022/06/26 06:55:09;;;;;;;5.57;2.60;;;20.90;88.90;;;;;;5075621;28;20484;-71
2022/06/26 06:57:35;;;;;;;3.17;2.67;;;20.90;90.20;;;;;;5076740;28;20484;-71
2022/06/26 07:00:04;;;;;;;2.70;2.50;;;21.10;90.00;;;;;;5076154;28;20459;-71
2022/06/26 07:02:32;;;;;;;4.87;2.80;;;21.20;88.90;;;;;;5075823;28;20449;-70
2022/06/26 07:05:00;;;;;;;5.40;3.13;;;21.50;88.40;;;;;;5075817;28;20461;-70
2022/06/26 07:07:27;;;;;;;3.80;2.90;;;21.80;87.80;;;;;;5075951;28;20490;-70
2022/06/26 07:09:53;;;;;;;4.60;3.10;;;22.10;88.40;;;;;;5075744;28;20946;-69
2022/06/26 07:12:20;;;;;;;4.03;2.87;;;22.40;86.10;;;;;;5075403;28;20961;-71
2022/06/26 07:14:47;;;;;;;2.60;2.40;;;22.50;83.10;;;;;;5075913;28;20475;-70
2022/06/26 07:17:14;;;;;;;2.77;2.07;;;22.60;81.30;;;;;;5075699;28;20451;-71
2022/06/26 07:19:42;;;;;;;4.20;2.40;;;22.50;80.20;;;;;;5075651;28;20459;-71
2022/06/26 07:22:09;;;;;;;2.73;2.50;;;22.50;81.80;;;;;;5075622;28;20494;-71
2022/06/26 07:24:37;;;;;;;2.60;2.10;;;22.50;81.50;;;;;;5075431;28;20464;-71
2022/06/26 07:27:04;;;;;;;6.13;2.60;;;22.50;82.00;;;;;;5075597;28;20448;-70
2022/06/26 07:29:31;;;;;;;3.60;1.80;;;22.60;81.80;;;;;;5075168;28;20441;-71
2022/06/26 07:31:58;;;;;;;3.43;2.20;;;22.70;80.80;;;;;;5075725;28;20451;-70
2022/06/26 07:34:25;;;;;;;1.80;1.70;;;22.70;78.90;;;;;;5075246;28;20475;-70
2022/06/26 07:36:54;;;;;;;1.90;1.80;;;22.80;77.00;;;;;;5074157;28;20448;-71
2022/06/26 07:39:21;;;;;;;4.40;1.90;;;22.90;78.70;;;;;;5075735;28;20481;-70
2022/06/26 07:41:50;;;;;;;2.10;1.80;;;22.90;76.20;;;;;;5075107;28;20902;-70
2022/06/26 07:44:17;;;;;;;2.50;1.60;;;23.10;75.60;;;;;;5075020;28;20461;-70
2022/06/26 07:46:45;;;;;;;6.13;1.60;;;23.20;73.90;;;;;;5074744;28;20449;-71
2022/06/26 07:49:12;;;;;;;2.67;1.30;;;23.10;72.80;;;;;;5075059;28;20449;-71
2022/06/26 07:51:39;;;;;;;1.40;1.20;;;23.10;72.20;;;;;;5074561;28;20515;-69
2022/06/26 07:54:07;;;;;;;2.73;1.43;;;23.20;73.60;;;;;;5074564;28;20511;-71
2022/06/26 07:56:34;;;;;;;1.90;1.70;;;23.50;73.40;;;;;;5074951;28;20447;-71
2022/06/26 07:59:01;;;;;;;3.97;1.57;;;23.80;72.00;;;;;;5074690;28;20480;-71
2022/06/26 08:01:28;;;;;;;1.30;1.20;;;24.10;71.00;;;;;;5074590;28;20858;-70
2022/06/26 08:03:55;;;;;;;2.27;1.40;;;24.30;69.90;;;;;;5074864;28;20475;-71
2022/06/26 08:06:22;;;;;;;2.73;1.53;;;24.40;66.60;;;;;;5075697;28;20440;-71
2022/06/26 08:08:49;;;;;;;2.07;1.80;;;24.50;67.60;;;;;;5075881;28;20791;-71
2022/06/26 08:11:17;;;;;;;4.23;1.33;;;24.50;65.80;;;;;;5076075;28;20448;-70
2022/06/26 08:13:44;;;;;;;2.20;1.57;;;24.50;67.00;;;;;;5074659;28;20461;-70
2022/06/26 08:16:11;;;;;;;2.20;1.20;;;24.60;66.30;;;;;;5074344;28;20444;-70
2022/06/26 08:18:38;;;;;;;1.47;1.37;;;24.60;63.30;;;;;;5074045;28;20480;-69
2022/06/26 08:23:46;;;;;;;2.70;1.43;;;24.60;64.90;;;;;;5072879;28;20444;-69
2022/06/26 08:26:13;;;;;;;1.47;1.37;;;24.70;66.30;;;;;;5073895;28;20448;-69
2022/06/26 08:28:41;;;;;;;1.37;1.17;;;24.90;66.70;;;;;;5073850;28;20790;-69
2022/06/26 08:31:08;;;;;;;1.80;1.30;;;25.10;65.30;;;;;;5074114;28;20467;-69
2022/06/26 08:33:34;;;;;;;95.30;6.30;;;25.40;64.80;;;;;;5073976;28;20472;-69
2022/06/26 08:36:01;;;;;;;2.40;1.13;;;25.40;60.20;;;;;;5074034;28;20828;-69
2022/06/26 08:38:28;;;;;;;2.83;1.40;;;25.40;60.30;;;;;;5074001;28;20550;-69
2022/06/26 08:40:55;;;;;;;1.70;1.40;;;25.40;60.10;;;;;;5074052;28;20436;-69
2022/06/26 08:43:23;;;;;;;1.30;1.20;;;25.40;59.80;;;;;;5073771;28;20469;-69
2022/06/26 08:45:53;;;;;;;2.90;1.40;;;25.30;59.50;;;;;;5073910;28;20854;-69
2022/06/26 08:48:21;;;;;;;1.27;0.90;;;25.40;60.00;;;;;;5073584;28;20433;-69
2022/06/26 08:50:48;;;;;;;2.13;1.07;;;25.50;58.90;;;;;;5073902;28;20437;-69
2022/06/26 08:53:16;;;;;;;1.50;1.17;;;25.60;57.70;;;;;;5073900;28;20483;-69
2022/06/26 08:55:43;;;;;;;4.60;0.90;;;25.60;55.00;;;;;;5073449;28;20465;-70
2022/06/26 08:58:10;;;;;;;2.33;1.20;;;25.70;54.00;;;;;;5074332;28;20464;-68
2022/06/26 09:00:37;;;;;;;1.13;0.80;;;25.80;55.10;;;;;;5073693;28;20532;-68
2022/06/26 09:03:06;;;;;;;1.90;1.23;;;26.00;54.50;;;;;;5073790;28;20819;-69
2022/06/26 09:05:32;;;;;;;6.13;1.70;;;26.40;53.90;;;;;;5073703;28;20424;-69
2022/06/26 09:07:59;;;;;;;1.10;1.00;;;26.70;54.00;;;;;;5073385;28;20815;-71
2022/06/26 09:10:28;;;;;;;1.77;1.10;;;27.00;51.80;;;;;;5073696;28;20443;-71
2022/06/26 09:12:57;;;;;;;1.17;1.07;;;27.30;51.40;;;;;;5073569;28;20451;-70
2022/06/26 09:15:25;;;;;;;1.27;1.03;;;27.40;50.00;;;;;;5073560;28;20455;-72
2022/06/26 09:17:57;;;;;;;1.30;1.00;;;27.50;51.30;;;;;;5073805;28;20449;-68
2022/06/26 09:20:25;;;;;;;0.97;0.70;;;27.50;48.40;;;;;;5073526;28;20942;-68
2022/06/26 09:22:53;;;;;;;1.23;0.90;;;27.70;48.50;;;;;;5073535;28;20452;-68
2022/06/26 09:25:20;;;;;;;1.70;0.90;;;27.70;48.90;;;;;;5073627;28;20570;-68
2022/06/26 09:27:47;;;;;;;1.33;1.00;;;27.80;47.30;;;;;;5073528;28;20428;-68
2022/06/26 09:30:14;;;;;;;2.00;1.20;;;27.90;49.20;;;;;;5073608;28;20436;-68
2022/06/26 09:32:41;;;;;;;1.30;1.00;;;28.10;48.00;;;;;;5073574;28;20442;-68
2022/06/26 09:35:09;;;;;;;2.80;1.13;;;28.20;47.80;;;;;;5073326;28;20468;-68
2022/06/26 09:37:39;;;;;;;2.20;1.00;;;28.30;44.90;;;;;;5073437;28;20455;-68
2022/06/26 09:40:07;;;;;;;2.47;1.40;;;28.40;46.60;;;;;;5073292;28;20473;-69
2022/06/26 09:42:35;;;;;;;2.10;1.43;;;28.60;48.50;;;;;;5073520;28;20447;-70
2022/06/26 09:45:01;;;;;;;1.63;1.40;;;28.90;47.90;;;;;;5073212;28;20473;-70
2022/06/26 09:47:30;;;;;;;7.77;0.87;;;29.00;45.50;;;;;;5073291;28;20483;-69
2022/06/26 09:50:00;;;;;;;1.83;1.00;;;29.10;43.50;;;;;;5073303;28;20428;-68
2022/06/26 09:52:29;;;;;;;2.33;1.30;;;29.40;44.90;;;;;;5073580;28;20433;-68
2022/06/26 09:54:59;;;;;;;1.27;1.13;;;29.70;44.30;;;;;;5072920;28;20487;-69
2022/06/26 09:57:27;;;;;;;2.13;1.07;;;30.00;43.90;;;;;;5073383;28;20455;-71
2022/06/26 09:59:55;;;;;;;1.50;1.10;;;30.30;41.90;;;;;;5074528;28;20492;-70
2022/06/26 10:07:54;;;;;;;1.23;1.00;;;30.30;40.80;;;;;;5076970;28;20514;-70
2022/06/26 10:10:24;;;;;;;2.20;1.50;;;30.40;41.80;;;;;;5076994;28;20444;-70
2022/06/26 10:12:53;;;;;;;1.80;1.23;;;30.50;41.60;;;;;;5077011;28;20438;-70
2022/06/26 10:15:24;;;;;;;1.67;1.07;;;30.60;41.50;;;;;;5076912;28;20437;-71
2022/06/26 10:18:07;;;;;;;3.13;1.20;;;30.40;39.30;;;;;;5076803;28;20441;-70
2022/06/26 10:20:35;;;;;;;2.20;1.40;;;30.20;40.30;;;;;;5076842;28;20436;-70
2022/06/26 10:23:02;;;;;;;2.57;1.40;;;30.20;40.20;;;;;;5076337;28;20433;-70
2022/06/26 10:25:31;;;;;;;2.47;1.07;;;30.00;39.90;;;;;;5076392;28;20449;-70
2022/06/26 10:27:59;;;;;;;1.03;0.93;;;29.80;41.60;;;;;;5077117;28;20428;-71
2022/06/26 10:30:28;;;;;;;1.20;1.10;;;29.60;42.20;;;;;;5076462;28;20429;-70
2022/06/26 10:33:09;;;;;;;3.90;1.50;;;29.40;42.20;;;;;;5076705;28;20452;-70
2022/06/26 10:35:43;;;;;;;1.17;0.70;;;29.30;42.40;;;;;;5076573;28;20528;-71
2022/06/26 10:38:21;;;;;;;3.17;1.40;;;29.10;42.60;;;;;;5076622;28;20433;-70
2022/06/26 10:43:56;;;;;;;2.57;1.30;;;28.50;41.90;;;;;;5077656;28;20801;-68
2022/06/26 10:46:23;;;;;;;1.33;1.10;;;28.00;43.60;;;;;;5078017;28;20413;-68
2022/06/26 10:48:53;;;;;;;3.00;1.63;;;27.70;44.40;;;;;;5077331;28;20448;-68
2022/06/26 10:51:27;;;;;;;6.87;1.50;;;27.40;45.40;;;;;;5078105;28;20425;-68
2022/06/26 10:53:54;;;;;;;1.40;1.30;;;27.20;45.10;;;;;;5077527;28;21027;-68
2022/06/26 10:56:23;;;;;;;2.33;1.50;;;27.00;45.40;;;;;;5077014;28;20448;-68
2022/06/26 10:58:58;;;;;;;4.30;1.30;;;26.90;46.30;;;;;;5076114;28;20510;-69
2022/06/26 11:01:26;;;;;;;1.13;1.03;;;26.80;47.20;;;;;;5076302;28;20432;-69
2022/06/26 11:03:53;;;;;;;3.00;1.53;;;26.70;47.10;;;;;;5076587;28;20464;-71
2022/06/26 11:06:20;;;;;;;1.77;1.40;;;26.50;48.20;;;;;;5075900;28;20456;-71
2022/06/26 11:08:48;;;;;;;2.97;1.23;;;26.40;48.00;;;;;;5076042;28;20444;-72
2022/06/26 11:11:17;;;;;;;4.50;1.47;;;26.30;48.70;;;;;;5075592;28;20445;-71
2022/06/26 11:13:54;;;;;;;2.17;1.30;;;26.10;48.80;;;;;;5075538;28;21031;-71
2022/06/26 11:16:29;;;;;;;2.00;1.40;;;26.00;48.40;;;;;;5075939;28;20431;-71
2022/06/26 11:18:57;;;;;;;2.37;1.23;;;25.80;48.70;;;;;;5075471;28;20468;-71
2022/06/26 11:21:24;;;;;;;2.87;1.40;;;25.60;49.30;;;;;;5075188;28;20494;-70
2022/06/26 11:23:51;;;;;;;2.70;1.50;;;25.30;49.70;;;;;;5075665;28;20464;-69
2022/06/26 11:26:20;;;;;;;2.97;1.40;;;25.10;50.80;;;;;;5075125;28;20945;-69
2022/06/26 11:28:56;;;;;;;2.90;1.30;;;24.90;52.00;;;;;;5075128;28;20944;-70
2022/06/26 11:31:25;;;;;;;1.87;1.67;;;24.80;54.20;;;;;;5075305;28;20431;-69
2022/06/26 11:33:52;;;;;;;4.10;1.50;;;24.70;54.80;;;;;;5075022;28;20469;-69
2022/06/26 11:36:22;;;;;;;4.00;1.83;;;24.60;54.60;;;;;;5075249;28;20447;-69
2022/06/26 11:38:52;;;;;;;3.40;1.90;;;24.60;57.00;;;;;;5075218;28;20460;-70
2022/06/26 11:41:20;;;;;;;1.63;1.40;;;24.60;57.50;;;;;;5074801;28;20843;-71
2022/06/26 11:43:48;;;;;;;2.27;1.60;;;24.60;58.30;;;;;;5075034;28;20469;-71
2022/06/26 11:46:17;;;;;;;5.03;1.37;;;24.70;57.90;;;;;;5075353;28;20445;-71
2022/06/26 11:48:44;;;;;;;2.70;1.37;;;24.70;58.70;;;;;;5075022;28;20444;-70
2022/06/26 11:51:13;;;;;;;2.50;1.30;;;24.80;59.00;;;;;;5075054;28;20483;-70
2022/06/26 11:53:45;;;;;;;2.77;1.37;;;25.00;58.20;;;;;;5074673;28;20484;-70
2022/06/26 11:56:19;;;;;;;2.63;1.43;;;25.10;54.80;;;;;;5074824;28;20921;-70
2022/06/26 11:58:48;;;;;;;2.50;1.43;;;25.40;54.80;;;;;;5074970;28;20437;-70
2022/06/26 12:01:23;;;;;;;4.90;1.80;;;25.50;54.70;;;;;;5074863;28;20432;-70
2022/06/26 12:03:52;;;;;;;3.13;1.33;;;25.70;55.40;;;;;;5074513;28;20472;-69
2022/06/26 12:06:30;;;;;;;3.37;1.27;;;25.70;55.40;;;;;;5074662;28;20443;-69
2022/06/26 12:08:57;;;;;;;3.80;1.43;;;25.70;54.60;;;;;;5074248;28;20937;-69
2022/06/26 12:11:25;;;;;;;1.83;1.43;;;25.70;54.00;;;;;;5074134;28;20441;-69
2022/06/26 12:13:52;;;;;;;2.43;1.70;;;25.70;54.70;;;;;;5074175;28;20825;-69
2022/06/26 12:16:21;;;;;;;3.93;1.83;;;25.70;56.00;;;;;;5074618;28;20445;-69
2022/06/26 12:18:50;;;;;;;2.97;1.50;;;25.60;56.00;;;;;;5074328;28;20480;-69
2022/06/26 12:21:17;;;;;;;2.57;1.40;;;25.60;55.80;;;;;;5074500;28;20822;-70
2022/06/26 12:23:46;;;;;;;2.70;1.50;;;25.60;55.40;;;;;;5073711;28;20753;-70
2022/06/26 12:26:14;;;;;;;5.07;1.43;;;25.60;56.90;;;;;;5074432;28;20836;-70
2022/06/26 12:28:46;;;;;;;3.90;1.70;;;25.50;56.60;;;;;;5074195;28;20804;-70
2022/06/26 12:31:13;;;;;;;2.20;1.23;;;25.50;54.70;;;;;;5074129;28;20463;-70
2022/06/26 12:33:42;;;;;;;3.43;1.63;;;25.40;55.10;;;;;;5073704;28;20981;-69
2022/06/26 12:36:09;;;;;;;2.50;1.33;;;25.40;55.00;;;;;;5074114;28;20455;-69
2022/06/26 12:38:37;;;;;;;1.80;1.70;;;25.30;54.70;;;;;;5074376;28;20432;-69
2022/06/26 12:41:04;;;;;;;3.23;1.17;;;25.20;54.30;;;;;;5073901;28;20480;-70
2022/06/26 12:43:31;;;;;;;2.70;1.33;;;25.20;54.70;;;;;;5073887;28;20468;-69
2022/06/26 12:45:58;;;;;;;2.87;1.60;;;25.20;54.00;;;;;;5073900;28;20422;-69
2022/06/26 12:48:25;;;;;;;2.70;1.60;;;25.20;54.50;;;;;;5074025;28;20432;-69
2022/06/26 12:50:53;;;;;;;4.00;1.80;;;25.30;54.80;;;;;;5073921;28;20433;-69
2022/06/26 12:53:20;;;;;;;2.53;1.30;;;25.30;54.60;;;;;;5073669;28;20471;-69
2022/06/26 12:55:47;;;;;;;3.37;1.40;;;25.30;53.50;;;;;;5073846;28;20425;-69
2022/06/26 12:58:14;;;;;;;2.07;1.60;;;25.30;53.30;;;;;;5073773;28;20452;-69
2022/06/26 13:00:40;;;;;;;2.40;1.43;;;25.40;53.20;;;;;;5073668;28;20491;-69
2022/06/26 13:03:07;;;;;;;1.90;1.30;;;25.30;54.20;;;;;;5073633;28;20449;-69
2022/06/26 13:05:34;;;;;;;7.30;2.00;;;25.30;55.00;;;;;;5073899;28;20432;-69